Kuching International Airport Kuching MY
ICAO: WBGG
IATA: KCH
Category: Medium
Scheduled Services: Yes

Elevation: 89 ft
TransAlt. 11000 ft.

Airport Communications:
RDR:134.5
APP DIRECTOR:120.2
ATIS:128.4
GND:121.9
TWR:118.1

WBGG Zoom In..

If you have problems with the map follow the link
https://www.worldairports.se/pages/airport.php?
ICAO=WBGG

Runways:

(A) RW 07 length 12402 ft width 151 ft
---- / hdg 68

(B) RW 25 length 12402 ft width 151 ft
ILS 110.30 / hdg 248

Location; WBGG
Day. 05 / Time. 14.00 Zulu
* QNH: 1013
* Temperature: 25° c. 77°f.
* Wind from: 190° Speed 08 kn.
Dewpoint: 24° c.
Visibility: 4000 m.
Clouds: Few 1500 ft.
Clouds: Scattered 2000 ft.
Clouds: Broken 15000 ft.
Conditions: Rain. No significant changes expected in the near future.

WBGG 051400Z 19008KT 150V210 4000 RA FEW015CB SCT020 BKN150 25/24 Q1013 NOSIG


Wind From 190°
Speed 08 kn.

 
 
jpsmedia worldairports.se 2019   terms of use